sensor_id;sensor_type;location;lat;lon;timestamp;P1;durP1;ratioP1;P2;durP2;ratioP2
70505;SDS011;58032;49.820;6.274;2022-07-17T00:01:02;4.60;;;0.30;;
70505;SDS011;58032;49.820;6.274;2022-07-17T00:03:29;2.42;;;0.50;;
70505;SDS011;58032;49.820;6.274;2022-07-17T00:05:56;3.88;;;0.52;;
70505;SDS011;58032;49.820;6.274;2022-07-17T00:08:24;3.38;;;0.40;;
70505;SDS011;58032;49.820;6.274;2022-07-17T00:10:51;3.47;;;0.50;;
70505;SDS011;58032;49.820;6.274;2022-07-17T00:13:18;2.75;;;0.55;;
70505;SDS011;58032;49.820;6.274;2022-07-17T00:15:45;2.20;;;0.40;;
70505;SDS011;58032;49.820;6.274;2022-07-17T00:18:12;3.17;;;0.60;;
70505;SDS011;58032;49.820;6.274;2022-07-17T00:20:39;1.90;;;0.47;;
70505;SDS011;58032;49.820;6.274;2022-07-17T00:23:06;3.95;;;0.50;;
70505;SDS011;58032;49.820;6.274;2022-07-17T00:25:33;2.33;;;0.52;;
70505;SDS011;58032;49.820;6.274;2022-07-17T00:28:01;3.25;;;0.40;;
70505;SDS011;58032;49.820;6.274;2022-07-17T00:30:28;4.28;;;0.50;;
70505;SDS011;58032;49.820;6.274;2022-07-17T00:32:55;4.13;;;0.50;;
70505;SDS011;58032;49.820;6.274;2022-07-17T00:35:22;3.53;;;0.52;;
70505;SDS011;58032;49.820;6.274;2022-07-17T00:37:50;2.25;;;0.40;;
70505;SDS011;58032;49.820;6.274;2022-07-17T00:40:20;3.28;;;0.40;;
70505;SDS011;58032;49.820;6.274;2022-07-17T00:42:49;5.45;;;0.60;;
70505;SDS011;58032;49.820;6.274;2022-07-17T00:45:17;3.20;;;0.30;;
70505;SDS011;58032;49.820;6.274;2022-07-17T00:47:55;3.00;;;0.52;;
70505;SDS011;58032;49.820;6.274;2022-07-17T00:50:26;3.38;;;0.40;;
70505;SDS011;58032;49.820;6.274;2022-07-17T00:52:58;3.25;;;0.47;;
70505;SDS011;58032;49.820;6.274;2022-07-17T00:55:25;3.42;;;0.60;;
70505;SDS011;58032;49.820;6.274;2022-07-17T00:58:07;3.75;;;0.52;;
70505;SDS011;58032;49.820;6.274;2022-07-17T01:00:36;2.45;;;0.50;;
70505;SDS011;58032;49.820;6.274;2022-07-17T01:03:03;4.38;;;0.70;;
70505;SDS011;58032;49.820;6.274;2022-07-17T01:05:30;4.18;;;0.50;;
70505;SDS011;58032;49.820;6.274;2022-07-17T01:07:58;2.72;;;0.50;;
70505;SDS011;58032;49.820;6.274;2022-07-17T01:10:26;2.60;;;0.40;;
70505;SDS011;58032;49.820;6.274;2022-07-17T01:12:53;5.25;;;0.50;;
70505;SDS011;58032;49.820;6.274;2022-07-17T01:15:20;2.05;;;0.50;;
70505;SDS011;58032;49.820;6.274;2022-07-17T01:17:47;4.88;;;0.60;;
70505;SDS011;58032;49.820;6.274;2022-07-17T01:20:14;2.42;;;0.40;;
70505;SDS011;58032;49.820;6.274;2022-07-17T01:22:45;4.30;;;0.40;;
70505;SDS011;58032;49.820;6.274;2022-07-17T01:25:14;4.18;;;0.57;;
70505;SDS011;58032;49.820;6.274;2022-07-17T01:27:42;5.43;;;0.63;;
70505;SDS011;58032;49.820;6.274;2022-07-17T01:30:09;5.28;;;0.55;;
70505;SDS011;58032;49.820;6.274;2022-07-17T01:32:38;2.17;;;0.45;;
70505;SDS011;58032;49.820;6.274;2022-07-17T01:35:07;3.95;;;0.70;;
70505;SDS011;58032;49.820;6.274;2022-07-17T01:37:36;2.45;;;0.52;;
70505;SDS011;58032;49.820;6.274;2022-07-17T01:40:04;4.15;;;0.40;;
70505;SDS011;58032;49.820;6.274;2022-07-17T01:42:31;4.72;;;0.60;;
70505;SDS011;58032;49.820;6.274;2022-07-17T01:44:58;5.63;;;0.60;;
70505;SDS011;58032;49.820;6.274;2022-07-17T01:47:25;3.42;;;0.50;;
70505;SDS011;58032;49.820;6.274;2022-07-17T01:49:53;2.60;;;0.55;;
70505;SDS011;58032;49.820;6.274;2022-07-17T01:52:23;7.82;;;0.82;;
70505;SDS011;58032;49.820;6.274;2022-07-17T01:54:51;6.60;;;0.70;;
70505;SDS011;58032;49.820;6.274;2022-07-17T01:57:19;3.72;;;0.50;;
70505;SDS011;58032;49.820;6.274;2022-07-17T01:59:47;3.10;;;0.30;;
70505;SDS011;58032;49.820;6.274;2022-07-17T02:02:14;6.25;;;0.70;;
70505;SDS011;58032;49.820;6.274;2022-07-17T02:04:42;3.90;;;0.55;;
70505;SDS011;58032;49.820;6.274;2022-07-17T02:07:10;3.63;;;0.55;;
70505;SDS011;58032;49.820;6.274;2022-07-17T02:09:37;3.10;;;0.52;;
70505;SDS011;58032;49.820;6.274;2022-07-17T02:12:05;2.35;;;0.50;;
70505;SDS011;58032;49.820;6.274;2022-07-17T02:14:32;2.03;;;0.50;;
70505;SDS011;58032;49.820;6.274;2022-07-17T02:17:00;4.05;;;1.38;;
70505;SDS011;58032;49.820;6.274;2022-07-17T02:19:28;2.92;;;0.40;;
70505;SDS011;58032;49.820;6.274;2022-07-17T02:21:55;3.05;;;0.52;;
70505;SDS011;58032;49.820;6.274;2022-07-17T02:24:22;2.33;;;0.40;;
70505;SDS011;58032;49.820;6.274;2022-07-17T02:26:49;4.93;;;0.60;;
70505;SDS011;58032;49.820;6.274;2022-07-17T02:29:16;5.15;;;0.50;;
70505;SDS011;58032;49.820;6.274;2022-07-17T02:31:43;2.33;;;0.32;;
70505;SDS011;58032;49.820;6.274;2022-07-17T02:34:10;3.58;;;0.52;;
70505;SDS011;58032;49.820;6.274;2022-07-17T02:36:37;3.30;;;0.65;;
70505;SDS011;58032;49.820;6.274;2022-07-17T02:39:04;3.03;;;0.60;;
70505;SDS011;58032;49.820;6.274;2022-07-17T02:41:31;4.72;;;0.50;;
70505;SDS011;58032;49.820;6.274;2022-07-17T02:43:59;3.38;;;0.68;;
70505;SDS011;58032;49.820;6.274;2022-07-17T02:46:26;3.47;;;0.50;;
70505;SDS011;58032;49.820;6.274;2022-07-17T02:48:53;3.78;;;0.65;;
70505;SDS011;58032;49.820;6.274;2022-07-17T02:51:19;2.35;;;0.50;;
70505;SDS011;58032;49.820;6.274;2022-07-17T02:53:46;3.95;;;0.57;;
70505;SDS011;58032;49.820;6.274;2022-07-17T02:56:13;4.13;;;0.47;;
70505;SDS011;58032;49.820;6.274;2022-07-17T02:58:40;3.58;;;0.45;;
70505;SDS011;58032;49.820;6.274;2022-07-17T03:01:07;7.90;;;0.73;;
70505;SDS011;58032;49.820;6.274;2022-07-17T03:03:34;2.13;;;0.45;;
70505;SDS011;58032;49.820;6.274;2022-07-17T03:06:01;3.28;;;0.60;;
70505;SDS011;58032;49.820;6.274;2022-07-17T03:08:28;2.28;;;0.40;;
70505;SDS011;58032;49.820;6.274;2022-07-17T03:10:56;2.28;;;0.40;;
70505;SDS011;58032;49.820;6.274;2022-07-17T03:13:23;3.53;;;0.43;;
70505;SDS011;58032;49.820;6.274;2022-07-17T03:15:50;2.60;;;0.40;;
70505;SDS011;58032;49.820;6.274;2022-07-17T03:18:17;3.38;;;0.52;;
70505;SDS011;58032;49.820;6.274;2022-07-17T03:20:44;2.25;;;0.40;;
70505;SDS011;58032;49.820;6.274;2022-07-17T03:23:11;2.83;;;0.40;;
70505;SDS011;58032;49.820;6.274;2022-07-17T03:25:38;6.78;;;0.50;;
70505;SDS011;58032;49.820;6.274;2022-07-17T03:28:05;2.88;;;0.40;;
70505;SDS011;58032;49.820;6.274;2022-07-17T03:30:32;2.65;;;0.40;;
70505;SDS011;58032;49.820;6.274;2022-07-17T03:32:59;2.42;;;0.40;;
70505;SDS011;58032;49.820;6.274;2022-07-17T03:35:26;3.67;;;0.50;;
70505;SDS011;58032;49.820;6.274;2022-07-17T03:37:53;2.00;;;0.47;;
70505;SDS011;58032;49.820;6.274;2022-07-17T03:40:20;3.10;;;0.43;;
70505;SDS011;58032;49.820;6.274;2022-07-17T03:42:47;2.20;;;0.40;;
70505;SDS011;58032;49.820;6.274;2022-07-17T03:45:16;3.38;;;0.60;;
70505;SDS011;58032;49.820;6.274;2022-07-17T03:47:43;4.47;;;0.57;;
70505;SDS011;58032;49.820;6.274;2022-07-17T03:50:10;3.15;;;0.52;;
70505;SDS011;58032;49.820;6.274;2022-07-17T03:52:36;2.20;;;0.57;;
70505;SDS011;58032;49.820;6.274;2022-07-17T03:55:04;2.97;;;0.57;;
70505;SDS011;58032;49.820;6.274;2022-07-17T03:57:31;2.10;;;0.60;;
70505;SDS011;58032;49.820;6.274;2022-07-17T04:00:00;3.70;;;0.50;;
70505;SDS011;58032;49.820;6.274;2022-07-17T04:02:37;2.97;;;0.75;;
70505;SDS011;58032;49.820;6.274;2022-07-17T04:05:04;2.28;;;0.40;;
70505;SDS011;58032;49.820;6.274;2022-07-17T04:07:39;3.03;;;0.38;;
70505;SDS011;58032;49.820;6.274;2022-07-17T04:10:09;2.55;;;0.47;;
70505;SDS011;58032;49.820;6.274;2022-07-17T04:12:38;2.88;;;0.40;;
70505;SDS011;58032;49.820;6.274;2022-07-17T04:15:05;3.53;;;0.40;;
70505;SDS011;58032;49.820;6.274;2022-07-17T04:17:33;2.30;;;0.50;;
70505;SDS011;58032;49.820;6.274;2022-07-17T04:20:01;6.65;;;0.50;;
70505;SDS011;58032;49.820;6.274;2022-07-17T04:22:29;2.05;;;0.47;;
70505;SDS011;58032;49.820;6.274;2022-07-17T04:24:56;4.20;;;0.60;;
70505;SDS011;58032;49.820;6.274;2022-07-17T04:27:23;1.83;;;0.40;;
70505;SDS011;58032;49.820;6.274;2022-07-17T04:29:50;2.95;;;0.45;;
70505;SDS011;58032;49.820;6.274;2022-07-17T04:32:16;3.80;;;0.70;;
70505;SDS011;58032;49.820;6.274;2022-07-17T04:34:43;4.30;;;0.70;;
70505;SDS011;58032;49.820;6.274;2022-07-17T04:37:11;4.07;;;0.70;;
70505;SDS011;58032;49.820;6.274;2022-07-17T04:39:37;5.35;;;0.80;;
70505;SDS011;58032;49.820;6.274;2022-07-17T04:42:04;5.43;;;0.70;;
70505;SDS011;58032;49.820;6.274;2022-07-17T04:44:31;3.75;;;0.75;;
70505;SDS011;58032;49.820;6.274;2022-07-17T04:46:58;3.35;;;0.70;;
70505;SDS011;58032;49.820;6.274;2022-07-17T04:49:27;2.28;;;0.60;;
70505;SDS011;58032;49.820;6.274;2022-07-17T04:51:54;3.93;;;0.67;;
70505;SDS011;58032;49.820;6.274;2022-07-17T04:54:21;3.58;;;0.63;;
70505;SDS011;58032;49.820;6.274;2022-07-17T04:56:48;4.50;;;0.70;;
70505;SDS011;58032;49.820;6.274;2022-07-17T04:59:16;2.55;;;0.70;;
70505;SDS011;58032;49.820;6.274;2022-07-17T05:01:42;3.00;;;0.90;;
70505;SDS011;58032;49.820;6.274;2022-07-17T05:04:10;3.53;;;0.87;;
70505;SDS011;58032;49.820;6.274;2022-07-17T05:06:37;4.35;;;1.02;;
70505;SDS011;58032;49.820;6.274;2022-07-17T05:09:04;5.97;;;0.90;;
70505;SDS011;58032;49.820;6.274;2022-07-17T05:11:31;2.63;;;0.80;;
70505;SDS011;58032;49.820;6.274;2022-07-17T05:13:58;3.42;;;1.08;;
70505;SDS011;58032;49.820;6.274;2022-07-17T05:16:25;4.73;;;1.03;;
70505;SDS011;58032;49.820;6.274;2022-07-17T05:18:52;1.85;;;0.68;;
70505;SDS011;58032;49.820;6.274;2022-07-17T05:21:19;5.72;;;0.82;;
70505;SDS011;58032;49.820;6.274;2022-07-17T05:23:46;3.15;;;0.75;;
70505;SDS011;58032;49.820;6.274;2022-07-17T05:26:13;3.90;;;1.00;;
70505;SDS011;58032;49.820;6.274;2022-07-17T05:28:40;5.00;;;0.77;;
70505;SDS011;58032;49.820;6.274;2022-07-17T05:31:07;5.45;;;1.10;;
70505;SDS011;58032;49.820;6.274;2022-07-17T05:33:34;4.65;;;1.00;;
70505;SDS011;58032;49.820;6.274;2022-07-17T05:36:01;3.28;;;1.00;;
70505;SDS011;58032;49.820;6.274;2022-07-17T05:38:28;3.15;;;0.60;;
70505;SDS011;58032;49.820;6.274;2022-07-17T05:40:55;3.53;;;0.80;;
70505;SDS011;58032;49.820;6.274;2022-07-17T05:43:22;3.85;;;0.85;;
70505;SDS011;58032;49.820;6.274;2022-07-17T05:45:50;5.60;;;0.70;;
70505;SDS011;58032;49.820;6.274;2022-07-17T05:48:20;4.75;;;0.80;;
70505;SDS011;58032;49.820;6.274;2022-07-17T05:50:47;4.88;;;0.80;;
70505;SDS011;58032;49.820;6.274;2022-07-17T05:53:14;3.10;;;0.63;;
70505;SDS011;58032;49.820;6.274;2022-07-17T05:55:42;4.68;;;0.70;;
70505;SDS011;58032;49.820;6.274;2022-07-17T05:58:09;3.70;;;0.70;;
70505;SDS011;58032;49.820;6.274;2022-07-17T06:00:36;2.30;;;0.60;;
70505;SDS011;58032;49.820;6.274;2022-07-17T06:03:03;6.30;;;0.95;;
70505;SDS011;58032;49.820;6.274;2022-07-17T06:05:31;3.03;;;0.60;;
70505;SDS011;58032;49.820;6.274;2022-07-17T06:07:58;3.22;;;0.80;;
70505;SDS011;58032;49.820;6.274;2022-07-17T06:10:25;2.08;;;0.60;;
70505;SDS011;58032;49.820;6.274;2022-07-17T06:12:53;3.88;;;0.85;;
70505;SDS011;58032;49.820;6.274;2022-07-17T06:15:20;4.10;;;0.90;;
70505;SDS011;58032;49.820;6.274;2022-07-17T06:17:48;3.23;;;0.63;;
70505;SDS011;58032;49.820;6.274;2022-07-17T06:20:15;3.75;;;0.80;;
70505;SDS011;58032;49.820;6.274;2022-07-17T06:22:43;3.30;;;0.88;;
70505;SDS011;58032;49.820;6.274;2022-07-17T06:25:11;3.30;;;0.50;;
70505;SDS011;58032;49.820;6.274;2022-07-17T06:27:39;2.60;;;0.70;;
70505;SDS011;58032;49.820;6.274;2022-07-17T06:30:11;2.30;;;0.60;;
70505;SDS011;58032;49.820;6.274;2022-07-17T06:32:40;2.25;;;0.77;;
70505;SDS011;58032;49.820;6.274;2022-07-17T06:35:07;2.25;;;0.60;;
70505;SDS011;58032;49.820;6.274;2022-07-17T06:37:35;4.20;;;0.80;;
70505;SDS011;58032;49.820;6.274;2022-07-17T06:40:03;4.95;;;1.00;;
70505;SDS011;58032;49.820;6.274;2022-07-17T06:42:31;2.60;;;0.90;;
70505;SDS011;58032;49.820;6.274;2022-07-17T06:44:58;3.72;;;1.00;;
70505;SDS011;58032;49.820;6.274;2022-07-17T06:47:25;5.32;;;0.90;;
70505;SDS011;58032;49.820;6.274;2022-07-17T06:49:52;3.67;;;0.70;;
70505;SDS011;58032;49.820;6.274;2022-07-17T06:52:19;7.78;;;1.13;;
70505;SDS011;58032;49.820;6.274;2022-07-17T06:54:46;3.40;;;0.70;;
70505;SDS011;58032;49.820;6.274;2022-07-17T06:57:13;3.13;;;0.90;;
70505;SDS011;58032;49.820;6.274;2022-07-17T06:59:40;3.70;;;0.60;;
70505;SDS011;58032;49.820;6.274;2022-07-17T07:02:07;2.03;;;0.60;;
70505;SDS011;58032;49.820;6.274;2022-07-17T07:04:34;5.22;;;0.85;;
70505;SDS011;58032;49.820;6.274;2022-07-17T07:07:01;4.00;;;0.60;;
70505;SDS011;58032;49.820;6.274;2022-07-17T07:09:28;3.15;;;0.85;;
70505;SDS011;58032;49.820;6.274;2022-07-17T07:11:55;5.18;;;0.70;;
70505;SDS011;58032;49.820;6.274;2022-07-17T07:14:22;3.78;;;0.82;;
70505;SDS011;58032;49.820;6.274;2022-07-17T07:16:49;4.68;;;0.93;;
70505;SDS011;58032;49.820;6.274;2022-07-17T07:19:16;3.10;;;0.70;;
70505;SDS011;58032;49.820;6.274;2022-07-17T07:21:43;2.90;;;0.82;;
70505;SDS011;58032;49.820;6.274;2022-07-17T07:24:10;3.13;;;0.45;;
70505;SDS011;58032;49.820;6.274;2022-07-17T07:26:37;2.63;;;0.80;;
70505;SDS011;58032;49.820;6.274;2022-07-17T07:29:04;4.10;;;0.88;;
70505;SDS011;58032;49.820;6.274;2022-07-17T07:31:31;2.40;;;0.63;;
70505;SDS011;58032;49.820;6.274;2022-07-17T07:33:59;2.67;;;0.70;;
70505;SDS011;58032;49.820;6.274;2022-07-17T07:36:26;4.18;;;0.70;;
70505;SDS011;58032;49.820;6.274;2022-07-17T07:38:55;3.97;;;0.77;;
70505;SDS011;58032;49.820;6.274;2022-07-17T07:41:22;2.40;;;0.60;;
70505;SDS011;58032;49.820;6.274;2022-07-17T07:43:50;3.87;;;0.70;;
70505;SDS011;58032;49.820;6.274;2022-07-17T07:46:17;2.08;;;0.60;;
70505;SDS011;58032;49.820;6.274;2022-07-17T07:48:44;2.83;;;0.70;;
70505;SDS011;58032;49.820;6.274;2022-07-17T07:51:11;2.20;;;0.70;;
70505;SDS011;58032;49.820;6.274;2022-07-17T07:53:39;2.17;;;0.68;;
70505;SDS011;58032;49.820;6.274;2022-07-17T07:56:06;2.90;;;0.60;;
70505;SDS011;58032;49.820;6.274;2022-07-17T07:58:33;4.93;;;0.90;;
70505;SDS011;58032;49.820;6.274;2022-07-17T08:01:03;4.05;;;1.35;;
70505;SDS011;58032;49.820;6.274;2022-07-17T08:03:30;3.15;;;0.80;;
70505;SDS011;58032;49.820;6.274;2022-07-17T08:05:57;6.25;;;0.60;;
70505;SDS011;58032;49.820;6.274;2022-07-17T08:08:24;2.90;;;0.80;;
70505;SDS011;58032;49.820;6.274;2022-07-17T08:10:51;3.88;;;0.80;;
70505;SDS011;58032;49.820;6.274;2022-07-17T08:13:18;2.40;;;0.70;;
70505;SDS011;58032;49.820;6.274;2022-07-17T08:15:46;4.40;;;0.77;;
70505;SDS011;58032;49.820;6.274;2022-07-17T08:18:13;3.58;;;0.70;;
70505;SDS011;58032;49.820;6.274;2022-07-17T08:20:40;3.63;;;0.90;;
70505;SDS011;58032;49.820;6.274;2022-07-17T08:23:07;2.45;;;0.77;;
70505;SDS011;58032;49.820;6.274;2022-07-17T08:25:34;3.63;;;0.80;;
70505;SDS011;58032;49.820;6.274;2022-07-17T08:28:02;2.45;;;0.88;;
70505;SDS011;58032;49.820;6.274;2022-07-17T08:30:30;4.72;;;1.10;;
70505;SDS011;58032;49.820;6.274;2022-07-17T08:33:02;6.03;;;1.07;;
70505;SDS011;58032;49.820;6.274;2022-07-17T08:35:48;5.06;;;0.88;;
70505;SDS011;58032;49.820;6.274;2022-07-17T08:38:15;5.77;;;1.00;;
70505;SDS011;58032;49.820;6.274;2022-07-17T08:40:42;6.05;;;1.08;;
70505;SDS011;58032;49.820;6.274;2022-07-17T08:43:14;3.15;;;0.65;;
70505;SDS011;58032;49.820;6.274;2022-07-17T08:45:41;2.58;;;0.90;;
70505;SDS011;58032;49.820;6.274;2022-07-17T08:48:13;2.67;;;1.00;;
70505;SDS011;58032;49.820;6.274;2022-07-17T08:50:41;2.90;;;0.73;;
70505;SDS011;58032;49.820;6.274;2022-07-17T08:53:09;3.25;;;1.13;;
70505;SDS011;58032;49.820;6.274;2022-07-17T08:55:36;4.38;;;0.90;;
70505;SDS011;58032;49.820;6.274;2022-07-17T08:58:03;4.38;;;1.00;;
70505;SDS011;58032;49.820;6.274;2022-07-17T09:00:34;3.38;;;1.10;;
70505;SDS011;58032;49.820;6.274;2022-07-17T09:03:02;3.33;;;0.90;;
70505;SDS011;58032;49.820;6.274;2022-07-17T09:05:38;4.00;;;0.73;;
70505;SDS011;58032;49.820;6.274;2022-07-17T09:08:07;3.70;;;0.75;;
70505;SDS011;58032;49.820;6.274;2022-07-17T09:10:40;2.20;;;0.90;;
70505;SDS011;58032;49.820;6.274;2022-07-17T09:13:16;3.97;;;0.70;;
70505;SDS011;58032;49.820;6.274;2022-07-17T09:15:44;3.03;;;1.17;;
70505;SDS011;58032;49.820;6.274;2022-07-17T09:18:13;3.28;;;1.42;;
70505;SDS011;58032;49.820;6.274;2022-07-17T09:20:48;3.92;;;1.20;;
70505;SDS011;58032;49.820;6.274;2022-07-17T09:23:18;2.80;;;0.90;;
70505;SDS011;58032;49.820;6.274;2022-07-17T09:25:47;2.65;;;0.90;;
70505;SDS011;58032;49.820;6.274;2022-07-17T09:28:16;10.83;;;1.00;;
70505;SDS011;58032;49.820;6.274;2022-07-17T09:30:44;2.63;;;0.80;;
70505;SDS011;58032;49.820;6.274;2022-07-17T09:33:17;2.67;;;1.02;;
70505;SDS011;58032;49.820;6.274;2022-07-17T09:35:45;3.40;;;0.77;;
70505;SDS011;58032;49.820;6.274;2022-07-17T09:38:32;4.20;;;0.90;;
70505;SDS011;58032;49.820;6.274;2022-07-17T09:41:05;2.17;;;0.60;;
70505;SDS011;58032;49.820;6.274;2022-07-17T09:43:58;3.60;;;0.90;;
70505;SDS011;58032;49.820;6.274;2022-07-17T09:46:30;4.03;;;0.90;;
70505;SDS011;58032;49.820;6.274;2022-07-17T09:49:00;3.33;;;0.73;;
70505;SDS011;58032;49.820;6.274;2022-07-17T09:51:29;5.25;;;0.50;;
70505;SDS011;58032;49.820;6.274;2022-07-17T09:54:01;2.60;;;0.50;;
70505;SDS011;58032;49.820;6.274;2022-07-17T09:56:31;3.55;;;0.73;;
70505;SDS011;58032;49.820;6.274;2022-07-17T09:59:00;3.78;;;1.02;;
70505;SDS011;58032;49.820;6.274;2022-07-17T10:01:34;3.05;;;0.50;;
70505;SDS011;58032;49.820;6.274;2022-07-17T10:04:03;4.30;;;0.75;;
70505;SDS011;58032;49.820;6.274;2022-07-17T10:06:30;5.83;;;0.77;;
70505;SDS011;58032;49.820;6.274;2022-07-17T10:08:58;2.28;;;0.65;;
70505;SDS011;58032;49.820;6.274;2022-07-17T10:11:27;2.28;;;0.70;;
70505;SDS011;58032;49.820;6.274;2022-07-17T10:13:56;4.03;;;0.70;;
70505;SDS011;58032;49.820;6.274;2022-07-17T10:16:30;3.65;;;0.70;;
70505;SDS011;58032;49.820;6.274;2022-07-17T10:18:59;2.07;;;0.90;;
70505;SDS011;58032;49.820;6.274;2022-07-17T10:21:29;2.10;;;0.55;;
70505;SDS011;58032;49.820;6.274;2022-07-17T10:29:00;2.33;;;0.60;;
70505;SDS011;58032;49.820;6.274;2022-07-17T10:31:28;3.57;;;0.63;;
70505;SDS011;58032;49.820;6.274;2022-07-17T10:34:00;4.18;;;0.63;;
70505;SDS011;58032;49.820;6.274;2022-07-17T10:39:10;5.50;;;0.73;;
70505;SDS011;58032;49.820;6.274;2022-07-17T10:41:38;3.17;;;0.55;;
70505;SDS011;58032;49.820;6.274;2022-07-17T10:44:06;3.23;;;0.77;;
70505;SDS011;58032;49.820;6.274;2022-07-17T10:46:33;3.20;;;0.65;;
70505;SDS011;58032;49.820;6.274;2022-07-17T10:49:01;3.58;;;0.70;;
70505;SDS011;58032;49.820;6.274;2022-07-17T10:51:33;2.42;;;0.70;;
70505;SDS011;58032;49.820;6.274;2022-07-17T10:54:02;2.10;;;0.70;;
70505;SDS011;58032;49.820;6.274;2022-07-17T10:56:29;2.87;;;0.57;;
70505;SDS011;58032;49.820;6.274;2022-07-17T10:59:00;5.95;;;0.80;;
70505;SDS011;58032;49.820;6.274;2022-07-17T11:01:28;2.60;;;0.60;;
70505;SDS011;58032;49.820;6.274;2022-07-17T11:04:00;2.25;;;0.60;;
70505;SDS011;58032;49.820;6.274;2022-07-17T11:09:00;3.67;;;0.80;;
70505;SDS011;58032;49.820;6.274;2022-07-17T11:14:18;3.80;;;0.70;;
70505;SDS011;58032;49.820;6.274;2022-07-17T11:16:56;2.67;;;0.70;;
70505;SDS011;58032;49.820;6.274;2022-07-17T11:19:32;3.03;;;0.95;;
70505;SDS011;58032;49.820;6.274;2022-07-17T11:22:02;4.17;;;0.60;;
70505;SDS011;58032;49.820;6.274;2022-07-17T11:24:37;3.05;;;0.73;;
70505;SDS011;58032;49.820;6.274;2022-07-17T11:27:05;2.10;;;0.50;;
70505;SDS011;58032;49.820;6.274;2022-07-17T11:29:39;2.00;;;0.60;;
70505;SDS011;58032;49.820;6.274;2022-07-17T11:32:07;1.85;;;0.55;;
70505;SDS011;58032;49.820;6.274;2022-07-17T11:34:34;2.37;;;0.77;;
70505;SDS011;58032;49.820;6.274;2022-07-17T11:37:03;2.65;;;0.77;;
70505;SDS011;58032;49.820;6.274;2022-07-17T11:39:43;4.28;;;0.93;;
70505;SDS011;58032;49.820;6.274;2022-07-17T11:42:14;3.22;;;0.52;;
70505;SDS011;58032;49.820;6.274;2022-07-17T11:44:46;2.50;;;0.63;;
70505;SDS011;58032;49.820;6.274;2022-07-17T11:47:23;2.10;;;0.50;;
70505;SDS011;58032;49.820;6.274;2022-07-17T11:50:06;1.98;;;0.50;;
70505;SDS011;58032;49.820;6.274;2022-07-17T11:52:44;2.88;;;0.60;;
70505;SDS011;58032;49.820;6.274;2022-07-17T11:55:15;4.07;;;0.60;;
70505;SDS011;58032;49.820;6.274;2022-07-17T11:57:47;3.28;;;0.80;;
70505;SDS011;58032;49.820;6.274;2022-07-17T12:00:16;3.13;;;0.70;;
70505;SDS011;58032;49.820;6.274;2022-07-17T12:02:45;2.80;;;0.77;;
70505;SDS011;58032;49.820;6.274;2022-07-17T12:05:13;3.83;;;0.93;;
70505;SDS011;58032;49.820;6.274;2022-07-17T12:10:17;4.13;;;0.70;;
70505;SDS011;58032;49.820;6.274;2022-07-17T12:15:34;2.70;;;0.80;;
70505;SDS011;58032;49.820;6.274;2022-07-17T12:18:20;3.00;;;0.80;;
70505;SDS011;58032;49.820;6.274;2022-07-17T12:20:52;2.88;;;0.80;;
70505;SDS011;58032;49.820;6.274;2022-07-17T12:23:34;3.55;;;0.90;;
70505;SDS011;58032;49.820;6.274;2022-07-17T12:26:07;2.20;;;0.80;;
70505;SDS011;58032;49.820;6.274;2022-07-17T12:28:39;4.00;;;1.00;;
70505;SDS011;58032;49.820;6.274;2022-07-17T12:31:09;2.40;;;0.95;;
70505;SDS011;58032;49.820;6.274;2022-07-17T12:33:38;2.60;;;0.77;;
70505;SDS011;58032;49.820;6.274;2022-07-17T12:36:05;2.70;;;0.90;;
70505;SDS011;58032;49.820;6.274;2022-07-17T12:38:32;2.83;;;1.13;;
70505;SDS011;58032;49.820;6.274;2022-07-17T12:40:59;2.67;;;1.00;;
70505;SDS011;58032;49.820;6.274;2022-07-17T12:43:26;2.60;;;0.80;;
70505;SDS011;58032;49.820;6.274;2022-07-17T12:45:53;3.28;;;0.90;;
70505;SDS011;58032;49.820;6.274;2022-07-17T12:48:22;2.65;;;0.90;;
70505;SDS011;58032;49.820;6.274;2022-07-17T12:50:49;4.53;;;1.10;;
70505;SDS011;58032;49.820;6.274;2022-07-17T12:53:17;7.80;;;1.10;;
70505;SDS011;58032;49.820;6.274;2022-07-17T12:55:43;4.13;;;0.98;;
70505;SDS011;58032;49.820;6.274;2022-07-17T12:58:10;2.55;;;0.93;;
70505;SDS011;58032;49.820;6.274;2022-07-17T13:00:37;3.63;;;1.00;;
70505;SDS011;58032;49.820;6.274;2022-07-17T13:03:04;2.73;;;1.00;;
70505;SDS011;58032;49.820;6.274;2022-07-17T13:05:31;2.20;;;0.75;;
70505;SDS011;58032;49.820;6.274;2022-07-17T13:07:58;3.95;;;1.00;;
70505;SDS011;58032;49.820;6.274;2022-07-17T13:10:25;4.88;;;1.60;;
70505;SDS011;58032;49.820;6.274;2022-07-17T13:12:52;2.78;;;0.88;;
70505;SDS011;58032;49.820;6.274;2022-07-17T13:15:19;2.33;;;1.03;;
70505;SDS011;58032;49.820;6.274;2022-07-17T13:17:48;3.20;;;1.02;;
70505;SDS011;58032;49.820;6.274;2022-07-17T13:20:15;2.67;;;0.80;;
70505;SDS011;58032;49.820;6.274;2022-07-17T13:22:42;2.67;;;0.90;;
70505;SDS011;58032;49.820;6.274;2022-07-17T13:25:09;3.75;;;0.93;;
70505;SDS011;58032;49.820;6.274;2022-07-17T13:27:36;2.23;;;0.80;;
70505;SDS011;58032;49.820;6.274;2022-07-17T13:30:03;3.03;;;0.90;;
70505;SDS011;58032;49.820;6.274;2022-07-17T13:32:31;4.97;;;0.77;;
70505;SDS011;58032;49.820;6.274;2022-07-17T13:34:58;3.15;;;1.35;;
70505;SDS011;58032;49.820;6.274;2022-07-17T13:37:25;4.53;;;0.90;;
70505;SDS011;58032;49.820;6.274;2022-07-17T13:39:52;3.57;;;1.00;;
70505;SDS011;58032;49.820;6.274;2022-07-17T13:42:19;4.05;;;1.27;;
70505;SDS011;58032;49.820;6.274;2022-07-17T13:44:46;2.90;;;0.77;;
70505;SDS011;58032;49.820;6.274;2022-07-17T13:47:13;2.80;;;0.80;;
70505;SDS011;58032;49.820;6.274;2022-07-17T13:49:41;3.58;;;1.08;;
70505;SDS011;58032;49.820;6.274;2022-07-17T13:52:08;2.97;;;1.20;;
70505;SDS011;58032;49.820;6.274;2022-07-17T13:54:35;2.70;;;1.08;;
70505;SDS011;58032;49.820;6.274;2022-07-17T13:57:02;3.70;;;1.13;;
70505;SDS011;58032;49.820;6.274;2022-07-17T13:59:29;2.47;;;1.00;;
70505;SDS011;58032;49.820;6.274;2022-07-17T14:01:57;3.00;;;1.15;;
70505;SDS011;58032;49.820;6.274;2022-07-17T14:04:24;2.57;;;0.90;;
70505;SDS011;58032;49.820;6.274;2022-07-17T14:06:51;3.08;;;1.00;;
70505;SDS011;58032;49.820;6.274;2022-07-17T14:09:18;3.58;;;1.27;;
70505;SDS011;58032;49.820;6.274;2022-07-17T14:11:45;4.78;;;1.20;;
70505;SDS011;58032;49.820;6.274;2022-07-17T14:14:12;3.25;;;0.90;;
70505;SDS011;58032;49.820;6.274;2022-07-17T14:16:39;4.27;;;1.10;;
70505;SDS011;58032;49.820;6.274;2022-07-17T14:19:06;3.35;;;0.90;;
70505;SDS011;58032;49.820;6.274;2022-07-17T14:21:36;2.70;;;0.93;;
70505;SDS011;58032;49.820;6.274;2022-07-17T14:24:05;5.82;;;1.42;;
70505;SDS011;58032;49.820;6.274;2022-07-17T14:26:33;2.10;;;1.10;;
70505;SDS011;58032;49.820;6.274;2022-07-17T14:29:02;3.80;;;0.80;;
70505;SDS011;58032;49.820;6.274;2022-07-17T14:31:30;2.92;;;1.10;;
70505;SDS011;58032;49.820;6.274;2022-07-17T14:33:57;2.65;;;0.88;;
70505;SDS011;58032;49.820;6.274;2022-07-17T14:36:24;3.03;;;1.40;;
70505;SDS011;58032;49.820;6.274;2022-07-17T14:38:51;3.42;;;1.17;;
70505;SDS011;58032;49.820;6.274;2022-07-17T14:41:18;3.57;;;1.10;;
70505;SDS011;58032;49.820;6.274;2022-07-17T14:43:46;4.53;;;1.10;;
70505;SDS011;58032;49.820;6.274;2022-07-17T14:46:13;2.20;;;1.02;;
70505;SDS011;58032;49.820;6.274;2022-07-17T14:48:40;3.58;;;1.30;;
70505;SDS011;58032;49.820;6.274;2022-07-17T14:51:07;2.53;;;1.10;;
70505;SDS011;58032;49.820;6.274;2022-07-17T14:53:34;3.27;;;0.90;;
70505;SDS011;58032;49.820;6.274;2022-07-17T14:56:01;2.53;;;0.80;;
70505;SDS011;58032;49.820;6.274;2022-07-17T14:58:28;2.35;;;0.88;;
70505;SDS011;58032;49.820;6.274;2022-07-17T15:00:55;2.53;;;1.10;;
70505;SDS011;58032;49.820;6.274;2022-07-17T15:03:24;2.95;;;1.25;;
70505;SDS011;58032;49.820;6.274;2022-07-17T15:05:51;2.93;;;1.30;;
70505;SDS011;58032;49.820;6.274;2022-07-17T15:08:21;2.30;;;0.90;;
70505;SDS011;58032;49.820;6.274;2022-07-17T15:10:48;2.17;;;0.80;;
70505;SDS011;58032;49.820;6.274;2022-07-17T15:13:15;2.00;;;1.00;;